Time;durP1;ratioP1;P1;durP2;ratioP2;P2;SDS_P1;SDS_P2;PMS_P1;PMS_P2;Temp;Humidity;BMP_temperature;BMP_pressure;BME280_temperature;BME280_humidity;BME280_pressure;Samples;Min_cycle;Max_cycle;Signal;HPM_P1;HPM_P2
2022/05/03 00:00:37;;;;;;;;;;;;;;;17.60;44.21;100761.00;5090577;28;825;-64
2022/05/03 00:03:06;;;;;;;;;;;;;;;17.67;44.30;100771.72;5077561;28;856;-64
2022/05/03 00:05:35;;;;;;;;;;;;;;;17.66;44.04;100767.31;5077991;28;1906;-64
2022/05/03 00:08:04;;;;;;;;;;;;;;;17.63;44.04;100767.88;5077568;28;840;-64
2022/05/03 00:10:50;;;;;;;;;;;;;;;17.66;44.02;100777.50;5078911;28;897;-64
2022/05/03 00:13:17;;;;;;;;;;;;;;;17.63;44.02;100776.13;5077550;28;1227;-64
2022/05/03 00:15:43;;;;;;;;;;;;;;;17.65;44.32;100770.34;5085254;28;1075;-64
2022/05/03 00:18:08;;;;;;;;;;;;;;;17.67;44.17;100760.72;5078562;28;848;-65
2022/05/03 00:20:35;;;;;;;;;;;;;;;17.62;44.00;100763.47;5087425;28;874;-64
2022/05/03 00:23:01;;;;;;;;;;;;;;;17.64;44.25;100763.19;5092217;28;1391;-64
2022/05/03 00:25:26;;;;;;;;;;;;;;;17.60;44.39;100763.75;5076507;28;1909;-64
2022/05/03 00:27:52;;;;;;;;;;;;;;;17.66;44.23;100761.00;5092400;28;817;-64
2022/05/03 00:30:17;;;;;;;;;;;;;;;17.64;44.28;100761.25;5079183;28;758;-65
2022/05/03 00:32:42;;;;;;;;;;;;;;;17.66;44.24;100759.06;5078793;28;863;-65
2022/05/03 00:35:09;;;;;;;;;;;;;;;17.66;44.29;100759.06;5081444;28;963;-65
2022/05/03 00:37:34;;;;;;;;;;;;;;;17.64;44.42;100744.75;5078455;28;826;-65
2022/05/03 00:40:00;;;;;;;;;;;;;;;17.68;44.47;100745.84;5095118;28;852;-64
2022/05/03 00:42:27;;;;;;;;;;;;;;;17.69;44.55;100744.75;5097391;28;731;-65
2022/05/03 00:45:11;;;;;;;;;;;;;;;17.66;44.90;100736.25;5096686;28;1914;-64
2022/05/03 00:47:49;;;;;;;;;;;;;;;17.64;44.95;100741.19;5097291;28;813;-65
2022/05/03 00:50:14;;;;;;;;;;;;;;;17.62;44.69;100739.53;5083833;28;826;-65
2022/05/03 00:52:55;;;;;;;;;;;;;;;17.65;44.66;100729.91;5084344;28;740;-65
2022/05/03 00:55:20;;;;;;;;;;;;;;;17.68;44.36;100732.09;5077948;28;1229;-65
2022/05/03 00:57:50;;;;;;;;;;;;;;;17.64;44.49;100721.94;5077105;28;786;-65
2022/05/03 01:00:16;;;;;;;;;;;;;;;17.65;44.47;100724.41;5077512;28;849;-65
2022/05/03 01:02:50;;;;;;;;;;;;;;;17.75;44.43;100723.53;5077673;28;1034;-65
2022/05/03 01:05:16;;;;;;;;;;;;;;;17.72;44.96;100732.34;5086548;28;1967;-65
2022/05/03 01:07:45;;;;;;;;;;;;;;;17.79;44.79;100719.13;5076526;28;829;-66
2022/05/03 01:10:41;;;;;;;;;;;;;;;17.71;44.75;100726.03;5075871;28;776;-64
2022/05/03 01:13:06;;;;;;;;;;;;;;;17.68;44.77;100718.34;5084864;28;1318;-65
2022/05/03 01:15:33;;;;;;;;;;;;;;;17.68;44.59;100723.84;5081529;28;1517;-65
2022/05/03 01:17:59;;;;;;;;;;;;;;;17.70;44.56;100726.34;5077039;28;825;-65
2022/05/03 01:20:49;;;;;;;;;;;;;;;17.71;44.57;100727.97;5081511;28;843;-65
2022/05/03 01:23:17;;;;;;;;;;;;;;;17.67;44.59;100727.72;5072950;28;1205;-65
2022/05/03 01:25:52;;;;;;;;;;;;;;;17.73;44.88;100723.00;5077256;28;1906;-66
2022/05/03 01:28:30;;;;;;;;;;;;;;;17.74;44.74;100722.72;5090142;28;845;-66
2022/05/03 01:31:03;;;;;;;;;;;;;;;17.74;44.72;100722.72;5078642;28;899;-65
2022/05/03 01:33:33;;;;;;;;;;;;;;;17.77;44.73;100727.66;5077287;28;904;-66
2022/05/03 01:36:00;;;;;;;;;;;;;;;17.76;44.92;100723.25;5076866;28;997;-66
2022/05/03 01:38:44;;;;;;;;;;;;;;;17.76;44.92;100723.25;5076740;28;1022;-66
2022/05/03 01:41:10;;;;;;;;;;;;;;;17.72;44.75;100727.66;5076727;28;833;-66
2022/05/03 01:44:05;;;;;;;;;;;;;;;17.67;44.72;100724.97;5076572;28;786;-65
2022/05/03 01:46:31;;;;;;;;;;;;;;;17.72;44.69;100715.84;5082445;28;1265;-66
2022/05/03 01:51:55;;;;;;;;;;;;;;;17.74;44.86;100711.72;5076968;28;762;-65
2022/05/03 01:54:33;;;;;;;;;;;;;;;17.79;44.44;100703.47;5079432;28;1573;-64
2022/05/03 01:57:00;;;;;;;;;;;;;;;17.76;44.63;100708.69;5075830;28;761;-65
2022/05/03 01:59:27;;;;;;;;;;;;;;;17.73;44.45;100710.06;5088141;28;1031;-65
2022/05/03 02:01:56;;;;;;;;;;;;;;;17.71;44.41;100717.81;5096585;28;829;-65
2022/05/03 02:04:40;;;;;;;;;;;;;;;17.72;44.55;100718.59;5089053;28;1977;-63
2022/05/03 02:07:14;;;;;;;;;;;;;;;17.69;44.51;100711.75;5081814;28;1083;-63
2022/05/03 02:09:46;;;;;;;;;;;;;;;17.73;44.82;100710.06;5079900;28;1048;-63
2022/05/03 02:12:14;;;;;;;;;;;;;;;17.73;44.59;100718.31;5079004;28;932;-63
2022/05/03 02:14:52;;;;;;;;;;;;;;;17.72;44.96;100715.84;5076479;28;1047;-63
2022/05/03 02:17:30;;;;;;;;;;;;;;;17.70;44.71;100705.16;5076732;28;837;-63
2022/05/03 02:19:57;;;;;;;;;;;;;;;17.71;44.74;100701.28;5078615;28;903;-63
2022/05/03 02:22:27;;;;;;;;;;;;;;;17.72;44.65;100702.91;5082425;28;961;-63
2022/05/03 02:25:13;;;;;;;;;;;;;;;17.72;44.66;100697.41;5088495;28;1901;-65
2022/05/03 02:27:42;;;;;;;;;;;;;;;17.71;44.73;100703.22;5075987;28;861;-65
2022/05/03 02:30:07;;;;;;;;;;;;;;;17.73;44.61;100693.56;5075400;28;758;-65
2022/05/03 02:32:42;;;;;;;;;;;;;;;17.72;44.65;100699.34;5075653;28;809;-65
2022/05/03 02:35:07;;;;;;;;;;;;;;;17.73;44.73;100704.56;5078607;28;805;-65
2022/05/03 02:37:49;;;;;;;;;;;;;;;17.68;44.90;100707.34;5075333;28;834;-65
2022/05/03 02:40:18;;;;;;;;;;;;;;;17.78;44.85;100709.22;5076013;28;718;-66
2022/05/03 02:42:44;;;;;;;;;;;;;;;17.78;45.08;100707.31;5075999;28;822;-67
2022/05/03 02:45:09;;;;;;;;;;;;;;;17.77;45.14;100705.66;5075373;28;1975;-65
2022/05/03 02:47:34;;;;;;;;;;;;;;;17.75;44.87;100705.13;5077586;28;1032;-65
2022/05/03 02:50:04;;;;;;;;;;;;;;;17.73;44.89;100712.00;5084875;28;1202;-66
2022/05/03 02:52:38;;;;;;;;;;;;;;;17.79;44.96;100714.47;5077251;28;1130;-66
2022/05/03 02:55:17;;;;;;;;;;;;;;;17.75;45.13;100718.88;5083429;28;1307;-67
2022/05/03 02:57:50;;;;;;;;;;;;;;;17.78;45.08;100715.56;5087654;28;749;-61
2022/05/03 03:03:19;;;;;;;;;;;;;;;17.78;45.04;100711.97;5052162;28;1197;-62
2022/05/03 03:05:48;;;;;;;;;;;;;;;17.79;45.00;100708.97;5070724;28;1981;-63
2022/05/03 03:08:14;;;;;;;;;;;;;;;17.78;44.71;100712.81;5076178;28;926;-62
2022/05/03 03:10:55;;;;;;;;;;;;;;;17.76;45.12;100715.00;5074827;28;802;-62
2022/05/03 03:13:20;;;;;;;;;;;;;;;17.79;44.84;100699.88;5089262;28;1084;-64
2022/05/03 03:15:46;;;;;;;;;;;;;;;17.75;44.88;100704.28;5096435;28;797;-64
2022/05/03 03:18:15;;;;;;;;;;;;;;;17.78;44.90;100711.97;5098538;28;1020;-63
2022/05/03 03:20:49;;;;;;;;;;;;;;;17.83;45.07;100716.63;5079394;28;1063;-62
2022/05/03 03:23:15;;;;;;;;;;;;;;;17.80;44.85;100715.28;5081727;28;1052;-64
2022/05/03 03:25:40;;;;;;;;;;;;;;;17.78;44.73;100706.47;5080630;28;1902;-60
2022/05/03 03:28:06;;;;;;;;;;;;;;;17.72;44.92;100702.91;5079382;28;874;-61
2022/05/03 03:30:31;;;;;;;;;;;;;;;17.75;44.61;100709.78;5077903;28;1093;-62
2022/05/03 03:32:57;;;;;;;;;;;;;;;17.71;44.91;100712.31;5079107;28;779;-60
2022/05/03 03:35:22;;;;;;;;;;;;;;;17.71;44.71;100715.06;5097835;28;1050;-61
2022/05/03 03:37:48;;;;;;;;;;;;;;;17.72;44.73;100719.41;5084961;28;785;-62
2022/05/03 03:40:14;;;;;;;;;;;;;;;17.79;44.47;100717.22;5079419;28;851;-61
2022/05/03 03:42:43;;;;;;;;;;;;;;;17.75;44.80;100720.78;5078879;28;911;-62
2022/05/03 03:45:09;;;;;;;;;;;;;;;17.75;44.68;100726.28;5079461;28;1910;-61
2022/05/03 03:47:35;;;;;;;;;;;;;;;17.80;44.70;100723.53;5085343;28;1127;-62
2022/05/03 03:50:00;;;;;;;;;;;;;;;17.72;44.41;100726.88;5088638;28;1336;-63
2022/05/03 03:52:26;;;;;;;;;;;;;;;17.70;44.63;100727.16;5089405;28;1403;-59
2022/05/03 03:54:51;;;;;;;;;;;;;;;17.70;44.41;100727.16;5092003;28;1353;-61
2022/05/03 03:57:20;;;;;;;;;;;;;;;17.66;44.35;100720.56;5087020;28;1349;-60
2022/05/03 03:59:45;;;;;;;;;;;;;;;17.63;44.52;100718.38;5078970;28;993;-60
2022/05/03 04:02:10;;;;;;;;;;;;;;;17.65;44.68;100720.84;5077552;28;913;-61
2022/05/03 04:04:36;;;;;;;;;;;;;;;17.72;44.55;100713.91;5084346;28;1976;-60
2022/05/03 04:07:02;;;;;;;;;;;;;;;17.67;44.62;100722.22;5079193;28;784;-61
2022/05/03 04:09:27;;;;;;;;;;;;;;;17.70;44.32;100729.91;5078771;28;813;-60
2022/05/03 04:11:53;;;;;;;;;;;;;;;17.72;44.59;100722.16;5081773;28;1360;-60
2022/05/03 04:14:18;;;;;;;;;;;;;;;17.70;44.48;100729.91;5081792;28;1364;-61
2022/05/03 04:16:45;;;;;;;;;;;;;;;17.74;44.74;100721.88;5078643;28;1376;-60
2022/05/03 04:19:12;;;;;;;;;;;;;;;17.82;44.79;100729.53;5092486;28;2014;-60
2022/05/03 04:21:38;;;;;;;;;;;;;;;17.85;44.81;100725.41;5078727;28;1376;-59
2022/05/03 04:24:04;;;;;;;;;;;;;;;17.82;44.87;100729.53;5080803;28;1926;-59
2022/05/03 04:26:29;;;;;;;;;;;;;;;17.82;44.75;100734.25;5090291;28;1177;-60
2022/05/03 04:28:58;;;;;;;;;;;;;;;17.82;44.96;100723.25;5082418;28;1240;-60
2022/05/03 04:31:24;;;;;;;;;;;;;;;17.83;44.68;100727.63;5077795;28;1218;-60
2022/05/03 04:33:50;;;;;;;;;;;;;;;17.78;44.85;100723.81;5077824;28;829;-59
2022/05/03 04:36:15;;;;;;;;;;;;;;;17.79;44.47;100728.22;5077659;28;773;-62
2022/05/03 04:38:41;;;;;;;;;;;;;;;17.77;44.59;100730.41;5078271;28;781;-60
2022/05/03 04:41:06;;;;;;;;;;;;;;;17.78;44.41;100740.31;5077467;28;892;-59
2022/05/03 04:43:32;;;;;;;;;;;;;;;17.77;44.48;100741.41;5078243;28;766;-60
2022/05/03 04:45:58;;;;;;;;;;;;;;;17.79;44.47;100739.22;5077954;28;1910;-60
2022/05/03 04:48:24;;;;;;;;;;;;;;;17.81;44.44;100743.59;5078285;28;1138;-60
2022/05/03 04:50:49;;;;;;;;;;;;;;;17.86;44.52;100740.81;5080316;28;1287;-61
2022/05/03 04:53:16;;;;;;;;;;;;;;;17.88;44.49;100744.94;5083101;28;1194;-61
2022/05/03 04:55:41;;;;;;;;;;;;;;;17.89;44.77;100746.59;5080143;28;1299;-60
2022/05/03 04:58:07;;;;;;;;;;;;;;;17.90;44.82;100730.91;5080042;28;1391;-60
2022/05/03 05:00:32;;;;;;;;;;;;;;;17.81;44.54;100743.59;5084930;28;1281;-60
2022/05/03 05:02:58;;;;;;;;;;;;;;;17.81;44.25;100738.09;5081327;28;1143;-60
2022/05/03 05:05:23;;;;;;;;;;;;;;;17.74;44.39;100743.88;5079592;28;1910;-60
2022/05/03 05:07:49;;;;;;;;;;;;;;;17.71;44.30;100737.06;5077323;28;810;-60
2022/05/03 05:10:23;;;;;;;;;;;;;;;17.69;43.96;100733.75;5077694;28;813;-60
2022/05/03 05:12:49;;;;;;;;;;;;;;;17.73;43.80;100726.56;5077511;28;1231;-59
2022/05/03 05:15:14;;;;;;;;;;;;;;;17.77;43.87;100730.41;5077893;28;730;-64
2022/05/03 05:17:40;;;;;;;;;;;;;;;17.76;43.87;100728.75;5076633;28;758;-63
2022/05/03 05:20:06;;;;;;;;;;;;;;;17.74;43.67;100730.97;5076218;28;844;-60
2022/05/03 05:22:32;;;;;;;;;;;;;;;17.70;43.68;100726.34;5076585;28;810;-60
2022/05/03 05:24:57;;;;;;;;;;;;;;;17.74;43.63;100728.22;5078303;28;1913;-60
2022/05/03 05:27:23;;;;;;;;;;;;;;;17.70;43.59;100727.16;5079854;28;1238;-60
2022/05/03 05:29:48;;;;;;;;;;;;;;;17.68;43.41;100734.84;5079888;28;1187;-60
2022/05/03 05:32:13;;;;;;;;;;;;;;;17.68;43.53;100734.84;5075941;28;818;-60
2022/05/03 05:34:39;;;;;;;;;;;;;;;17.71;43.49;100738.97;5084105;28;855;-60
2022/05/03 05:37:04;;;;;;;;;;;;;;;17.61;43.54;100729.66;5076745;28;849;-60
2022/05/03 05:39:31;;;;;;;;;;;;;;;17.66;43.43;100742.56;5076022;28;1007;-60
2022/05/03 05:41:56;;;;;;;;;;;;;;;17.70;43.51;100740.91;5076860;28;841;-60
2022/05/03 05:44:22;;;;;;;;;;;;;;;17.69;43.46;100744.75;5076512;28;1901;-60
2022/05/03 05:46:48;;;;;;;;;;;;;;;17.73;43.76;100742.25;5076404;28;870;-60
2022/05/03 05:49:13;;;;;;;;;;;;;;;17.77;43.96;100737.84;5076759;28;1035;-60
2022/05/03 05:51:38;;;;;;;;;;;;;;;17.75;43.72;100751.88;5077811;28;1223;-60
2022/05/03 05:54:04;;;;;;;;;;;;;;;17.79;44.09;100741.97;5089400;28;1181;-60
2022/05/03 05:56:29;;;;;;;;;;;;;;;17.78;44.03;100743.06;5084063;28;1075;-60
2022/05/03 05:58:55;;;;;;;;;;;;;;;17.83;44.28;100735.91;5080402;28;1102;-60
2022/05/03 06:01:24;;;;;;;;;;;;;;;17.77;44.21;100741.41;5078717;28;1098;-61
2022/05/03 06:03:50;;;;;;;;;;;;;;;17.82;44.36;100734.25;5094151;28;826;-61
2022/05/03 06:06:15;;;;;;;;;;;;;;;17.78;44.24;100734.81;5076240;28;1917;-60
2022/05/03 06:08:41;;;;;;;;;;;;;;;17.88;44.60;100731.19;5076486;28;872;-62
2022/05/03 06:11:06;;;;;;;;;;;;;;;17.85;44.44;100739.16;5076317;28;853;-61
2022/05/03 06:13:32;;;;;;;;;;;;;;;17.84;44.40;100743.00;5076190;28;1039;-61
2022/05/03 06:16:09;;;;;;;;;;;;;;;17.86;44.39;100741.63;5076003;28;809;-61
2022/05/03 06:18:36;;;;;;;;;;;;;;;17.89;44.25;100740.25;5076537;28;873;-61
2022/05/03 06:21:03;;;;;;;;;;;;;;;17.85;44.27;100736.41;5082885;28;1029;-61
2022/05/03 06:23:29;;;;;;;;;;;;;;;17.86;44.36;100746.31;5075823;28;833;-60
2022/05/03 06:25:54;;;;;;;;;;;;;;;17.88;44.29;100750.44;5094934;28;1981;-60
2022/05/03 06:28:20;;;;;;;;;;;;;;;17.89;44.41;100740.25;5093018;28;913;-60
2022/05/03 06:30:45;;;;;;;;;;;;;;;17.85;44.47;100742.75;5079786;28;1252;-62
2022/05/03 06:33:11;;;;;;;;;;;;;;;17.91;44.74;100735.34;5091920;28;1012;-61
2022/05/03 06:35:36;;;;;;;;;;;;;;;17.92;44.51;100736.94;5077382;28;1238;-60
2022/05/03 06:38:02;;;;;;;;;;;;;;;17.95;44.50;100744.66;5074977;28;1111;-61
2022/05/03 06:40:27;;;;;;;;;;;;;;;17.99;44.55;100742.16;5077520;28;1217;-60
2022/05/03 06:42:54;;;;;;;;;;;;;;;17.97;44.42;100742.44;5076406;28;1150;-60
2022/05/03 06:45:20;;;;;;;;;;;;;;;18.01;44.75;100743.50;5078314;28;1921;-60
2022/05/03 06:47:48;;;;;;;;;;;;;;;18.02;44.48;100741.56;5076194;28;836;-60
2022/05/03 06:50:13;;;;;;;;;;;;;;;18.04;44.54;100742.13;5078092;28;861;-59
2022/05/03 06:52:38;;;;;;;;;;;;;;;18.03;44.54;100744.03;5083231;28;831;-59
2022/05/03 06:55:05;;;;;;;;;;;;;;;18.05;44.55;100741.84;5099548;28;1483;-60
2022/05/03 06:57:31;;;;;;;;;;;;;;;18.06;44.50;100734.41;5099744;28;813;-59
2022/05/03 06:59:56;;;;;;;;;;;;;;;18.02;44.56;100741.56;5086714;28;1058;-59
2022/05/03 07:02:22;;;;;;;;;;;;;;;18.01;44.57;100743.50;5081919;28;1194;-60
2022/05/03 07:04:49;;;;;;;;;;;;;;;18.03;44.25;100738.53;5079058;28;1905;-59
2022/05/03 07:07:15;;;;;;;;;;;;;;;18.00;44.45;100741.88;5079314;28;842;-59
2022/05/03 07:09:41;;;;;;;;;;;;;;;18.05;44.33;100750.09;5079986;28;849;-60
2022/05/03 07:12:07;;;;;;;;;;;;;;;18.04;44.30;100747.63;5079565;28;1128;-60
2022/05/03 07:14:33;;;;;;;;;;;;;;;18.01;44.38;100753.72;5084724;28;1245;-59
2022/05/03 07:16:58;;;;;;;;;;;;;;;18.02;44.25;100753.44;5087516;28;818;-60
2022/05/03 07:24:52;;;;;;;;;;;;;;;18.03;43.93;100766.06;5087365;28;1913;-60
2022/05/03 07:27:17;;;;;;;;;;;;;;;18.05;43.91;100755.59;5092265;28;953;-59
2022/05/03 07:29:44;;;;;;;;;;;;;;;18.08;44.14;100757.78;5087674;28;754;-59
2022/05/03 07:32:09;;;;;;;;;;;;;;;18.08;44.51;100755.03;5090272;28;864;-59
2022/05/03 07:34:35;;;;;;;;;;;;;;;18.07;44.44;100761.63;5093117;28;956;-59
2022/05/03 07:37:00;;;;;;;;;;;;;;;18.05;44.28;100766.59;5078508;28;892;-60
2022/05/03 07:39:26;;;;;;;;;;;;;;;18.07;44.21;100780.06;5079131;28;833;-60
2022/05/03 07:41:53;;;;;;;;;;;;;;;18.05;44.07;100774.06;5079128;28;754;-60
2022/05/03 07:44:19;;;;;;;;;;;;;;;18.01;44.29;100782.03;5078907;28;1938;-60
2022/05/03 07:46:44;;;;;;;;;;;;;;;18.03;43.93;100779.81;5078995;28;869;-60
2022/05/03 07:49:11;;;;;;;;;;;;;;;18.05;43.96;100782.31;5080050;28;886;-59
2022/05/03 07:51:37;;;;;;;;;;;;;;;18.11;43.98;100781.97;5078123;28;797;-59
2022/05/03 07:54:02;;;;;;;;;;;;;;;18.03;44.11;100779.00;5077659;28;1168;-60
2022/05/03 07:56:28;;;;;;;;;;;;;;;18.04;44.01;100781.47;5079062;28;816;-60
2022/05/03 07:58:53;;;;;;;;;;;;;;;18.07;43.79;100785.59;5082757;28;972;-59
2022/05/03 08:01:19;;;;;;;;;;;;;;;17.99;43.93;100794.44;5078127;28;822;-59
2022/05/03 08:03:44;;;;;;;;;;;;;;;17.98;43.81;100793.63;5079436;28;791;-60
2022/05/03 08:06:10;;;;;;;;;;;;;;;18.01;43.79;100793.03;5084360;28;1905;-60
2022/05/03 08:08:35;;;;;;;;;;;;;;;17.98;43.79;100792.78;5078599;28;738;-60
2022/05/03 08:11:00;;;;;;;;;;;;;;;17.94;43.64;100792.53;5079040;28;813;-59
2022/05/03 08:13:26;;;;;;;;;;;;;;;17.94;43.54;100787.84;5078509;28;1011;-59
2022/05/03 08:15:52;;;;;;;;;;;;;;;17.97;43.36;100796.66;5098052;28;845;-60
2022/05/03 08:18:17;;;;;;;;;;;;;;;17.96;43.59;100784.81;5085122;28;1516;-60
2022/05/03 08:20:43;;;;;;;;;;;;;;;17.92;43.53;100794.72;5082039;28;917;-60
2022/05/03 08:23:08;;;;;;;;;;;;;;;17.90;43.49;100794.97;5078981;28;777;-60
2022/05/03 08:25:36;;;;;;;;;;;;;;;17.86;43.11;100793.09;5078078;28;1985;-59
2022/05/03 08:28:02;;;;;;;;;;;;;;;17.87;43.12;100792.78;5077906;28;924;-59
2022/05/03 08:30:27;;;;;;;;;;;;;;;17.85;42.96;100795.03;5077915;28;881;-59
2022/05/03 08:32:52;;;;;;;;;;;;;;;17.85;43.07;100791.44;5078627;28;846;-59
2022/05/03 08:35:21;;;;;;;;;;;;;;;17.85;43.41;100795.03;5077809;28;851;-60
2022/05/03 08:43:15;;;;;;;;;;;;;;;17.84;43.03;100789.78;5076914;28;797;-60
2022/05/03 08:45:44;;;;;;;;;;;;;;;17.83;42.97;100791.72;5077949;28;1906;-60
2022/05/03 08:48:10;;;;;;;;;;;;;;;17.84;43.03;100790.63;5077598;28;862;-60
2022/05/03 08:50:35;;;;;;;;;;;;;;;17.86;43.01;100790.34;5078042;28;819;-59
2022/05/03 08:53:01;;;;;;;;;;;;;;;17.84;43.30;100787.88;5077757;28;785;-60
2022/05/03 08:55:27;;;;;;;;;;;;;;;17.80;43.25;100792.28;5077883;28;839;-60
2022/05/03 08:57:52;;;;;;;;;;;;;;;17.81;43.47;100793.09;5078581;28;1107;-59
2022/05/03 09:00:18;;;;;;;;;;;;;;;17.84;43.51;100787.03;5082990;28;1292;-60
2022/05/03 09:02:51;;;;;;;;;;;;;;;17.81;43.46;100795.84;5097250;28;793;-61
2022/05/03 09:05:17;;;;;;;;;;;;;;;17.82;43.52;100789.25;5083849;28;1897;-62
2022/05/03 09:07:49;;;;;;;;;;;;;;;17.85;43.63;100794.19;5076924;28;1084;-61
2022/05/03 09:10:18;;;;;;;;;;;;;;;17.81;43.36;100793.09;5079113;28;1186;-60
2022/05/03 09:12:46;;;;;;;;;;;;;;;17.84;43.22;100787.03;5087857;28;1197;-60
2022/05/03 09:15:12;;;;;;;;;;;;;;;17.84;43.42;100792.53;5088870;28;1213;-60
2022/05/03 09:17:41;;;;;;;;;;;;;;;17.81;43.29;100798.59;5082105;28;1028;-60
2022/05/03 09:23:46;;;;;;;;;;;;;;;17.78;43.59;100800.81;5084182;28;1163;-61
2022/05/03 09:25:47;;;;;;;;;;;;;;;17.85;43.38;100797.78;5078660;28;1976;-60
2022/05/03 09:28:12;;;;;;;;;;;;;;;17.81;43.31;100801.34;5078246;28;852;-61
2022/05/03 09:30:44;;;;;;;;;;;;;;;17.80;43.17;100797.78;5081306;28;1077;-60
2022/05/03 09:33:14;;;;;;;;;;;;;;;17.75;43.44;100784.88;5078836;28;1205;-60
2022/05/03 09:35:40;;;;;;;;;;;;;;;17.78;43.69;100792.56;5078959;28;1245;-60
2022/05/03 09:38:05;;;;;;;;;;;;;;;17.79;43.58;100794.22;5086065;28;1477;-60
2022/05/03 09:40:40;;;;;;;;;;;;;;;17.78;43.34;100789.81;5090810;28;990;-60
2022/05/03 09:43:06;;;;;;;;;;;;;;;17.75;43.06;100782.13;5095921;28;773;-60
2022/05/03 09:45:31;;;;;;;;;;;;;;;17.65;43.20;100782.16;5090489;28;1973;-60
2022/05/03 09:47:58;;;;;;;;;;;;;;;17.70;43.00;100784.09;5076625;28;750;-60
2022/05/03 09:50:43;;;;;;;;;;;;;;;17.72;42.86;100785.44;5076650;28;861;-60
2022/05/03 09:53:10;;;;;;;;;;;;;;;17.69;42.85;100780.50;5076737;28;1105;-60
2022/05/03 09:55:39;;;;;;;;;;;;;;;17.72;42.69;100784.63;5076258;28;826;-61
2022/05/03 09:58:08;;;;;;;;;;;;;;;17.65;43.16;100773.09;5076210;28;829;-60
2022/05/03 10:00:34;;;;;;;;;;;;;;;17.67;42.78;100776.38;5078024;28;1146;-60
2022/05/03 10:03:01;;;;;;;;;;;;;;;17.67;43.00;100773.63;5076474;28;920;-60
2022/05/03 10:05:26;;;;;;;;;;;;;;;17.68;42.69;100767.84;5080076;28;1905;-60
2022/05/03 10:07:52;;;;;;;;;;;;;;;17.66;42.97;100764.56;5076134;28;944;-60
2022/05/03 10:10:18;;;;;;;;;;;;;;;17.65;42.82;100757.41;5076548;28;861;-60
2022/05/03 10:12:44;;;;;;;;;;;;;;;17.64;42.86;100760.44;5080486;28;1154;-61
2022/05/03 10:15:10;;;;;;;;;;;;;;;17.60;43.12;100746.44;5078530;28;980;-61
2022/05/03 10:20:40;;;;;;;;;;;;;;;17.67;43.07;100746.13;5081749;28;1121;-58
2022/05/03 10:23:35;;;;;;;;;;;;;;;17.63;42.94;100737.63;5081644;28;1435;-61
2022/05/03 10:26:01;;;;;;;;;;;;;;;17.66;43.21;100742.56;5067329;28;1981;-61
2022/05/03 10:28:46;;;;;;;;;;;;;;;17.68;43.10;100742.28;5080156;28;1137;-64
2022/05/03 10:31:13;;;;;;;;;;;;;;;17.62;42.96;100730.47;5075890;28;1487;-67
2022/05/03 10:33:39;;;;;;;;;;;;;;;17.64;43.06;100727.44;5076802;28;1341;-64
2022/05/03 10:36:23;;;;;;;;;;;;;;;17.64;42.96;100722.75;5075410;28;1154;-66
2022/05/03 10:38:49;;;;;;;;;;;;;;;17.61;43.11;100726.91;5083580;28;1047;-64
2022/05/03 10:41:22;;;;;;;;;;;;;;;17.65;42.91;100734.59;5084581;28;1133;-65
2022/05/03 10:43:47;;;;;;;;;;;;;;;17.62;42.60;100724.97;5082999;28;1226;-65
2022/05/03 10:46:13;;;;;;;;;;;;;;;17.63;42.78;100723.88;5078588;28;1910;-65
2022/05/03 10:48:43;;;;;;;;;;;;;;;17.60;42.80;100722.50;5086307;28;1436;-64
2022/05/03 10:51:09;;;;;;;;;;;;;;;17.57;42.69;100719.50;5085677;28;1231;-64
2022/05/03 10:53:35;;;;;;;;;;;;;;;17.56;42.75;100720.63;5083401;28;1186;-66
2022/05/03 10:56:02;;;;;;;;;;;;;;;17.55;42.58;100713.47;5079333;28;1166;-65
2022/05/03 10:58:28;;;;;;;;;;;;;;;17.52;42.72;100720.34;5078371;28;1143;-65
2022/05/03 11:01:07;;;;;;;;;;;;;;;17.52;42.69;100711.28;5084003;28;1182;-67
2022/05/03 11:03:37;;;;;;;;;;;;;;;17.50;42.69;100708.81;5083342;28;1163;-67
2022/05/03 11:09:04;;;;;;;;;;;;;;;17.48;42.55;100707.44;5084963;28;1238;-64
2022/05/03 11:11:43;;;;;;;;;;;;;;;17.44;42.56;100704.44;5076421;28;738;-64
2022/05/03 11:14:12;;;;;;;;;;;;;;;17.45;42.49;100703.34;5077605;28;1083;-66
2022/05/03 11:16:37;;;;;;;;;;;;;;;17.43;42.60;100700.88;5079349;28;843;-64
2022/05/03 11:19:08;;;;;;;;;;;;;;;17.38;42.49;100697.31;5081908;28;1515;-63
2022/05/03 11:21:34;;;;;;;;;;;;;;;17.41;42.24;100692.06;5090608;28;1391;-65
2022/05/03 11:23:59;;;;;;;;;;;;;;;17.37;42.38;100690.16;5087957;28;1395;-63
2022/05/03 11:26:25;;;;;;;;;;;;;;;17.37;42.22;100681.94;5077306;28;1905;-66
2022/05/03 11:28:51;;;;;;;;;;;;;;;17.42;42.09;100681.91;5075517;28;1416;-67
2022/05/03 11:31:19;;;;;;;;;;;;;;;17.39;42.13;100686.03;5075559;28;872;-64
2022/05/03 11:33:57;;;;;;;;;;;;;;;17.37;42.14;100674.50;5075439;28;1155;-64
2022/05/03 11:36:23;;;;;;;;;;;;;;;17.37;42.10;100677.25;5084246;28;1391;-61
2022/05/03 11:38:51;;;;;;;;;;;;;;;17.30;42.40;100686.91;5089609;28;1443;-63
2022/05/03 11:41:20;;;;;;;;;;;;;;;17.32;42.30;100692.94;5086590;28;881;-63
2022/05/03 11:43:47;;;;;;;;;;;;;;;17.34;42.26;100688.00;5091545;28;1408;-64
2022/05/03 11:46:14;;;;;;;;;;;;;;;17.32;42.09;100693.78;5085031;28;1991;-66
2022/05/03 11:48:40;;;;;;;;;;;;;;;17.28;42.06;100684.44;5083825;28;1404;-64
2022/05/03 11:56:34;;;;;;;;;;;;;;;17.25;42.25;100687.72;5079129;28;774;-62
2022/05/03 11:59:00;;;;;;;;;;;;;;;17.22;42.16;100691.03;5081261;28;1040;-62
2022/05/03 12:01:25;;;;;;;;;;;;;;;17.24;41.94;100694.34;5097006;28;1122;-63
2022/05/03 12:03:51;;;;;;;;;;;;;;;17.24;42.13;100692.41;5096798;28;1060;-63
2022/05/03 12:06:17;;;;;;;;;;;;;;;17.17;42.06;100686.41;5078464;28;2349;-64
2022/05/03 12:08:42;;;;;;;;;;;;;;;17.22;41.91;100693.78;5078822;28;816;-64
2022/05/03 12:11:19;;;;;;;;;;;;;;;17.28;42.25;100698.19;5077454;28;952;-63
2022/05/03 12:13:44;;;;;;;;;;;;;;;17.35;42.69;100689.63;5078312;28;1116;-65
2022/05/03 12:16:11;;;;;;;;;;;;;;;17.53;43.13;100688.16;5078631;28;732;-62
2022/05/03 12:18:37;;;;;;;;;;;;;;;17.56;43.58;100682.13;5078140;28;865;-62
2022/05/03 12:21:09;;;;;;;;;;;;;;;17.67;43.76;100691.13;5078081;28;879;-62
2022/05/03 12:23:34;;;;;;;;;;;;;;;17.68;44.20;100695.53;5091484;28;853;-65
2022/05/03 12:26:15;;;;;;;;;;;;;;;17.74;44.68;100706.22;5097465;28;1978;-65
2022/05/03 12:28:41;;;;;;;;;;;;;;;17.83;44.83;100694.63;5087138;28;1221;-64
2022/05/03 12:31:08;;;;;;;;;;;;;;;17.84;44.79;100693.50;5085936;28;836;-64
2022/05/03 12:33:33;;;;;;;;;;;;;;;17.90;45.05;100692.38;5076737;28;800;-63
2022/05/03 12:36:02;;;;;;;;;;;;;;;17.93;45.33;100691.84;5088437;28;1278;-64
2022/05/03 12:38:27;;;;;;;;;;;;;;;17.92;45.30;100695.69;5078980;28;834;-64
2022/05/03 12:40:54;;;;;;;;;;;;;;;17.96;45.18;100696.75;5078410;28;846;-65
2022/05/03 12:43:21;;;;;;;;;;;;;;;18.03;45.45;100701.97;5078202;28;865;-65
2022/05/03 12:46:00;;;;;;;;;;;;;;;18.03;45.36;100705.53;5077907;28;1906;-65
2022/05/03 12:48:27;;;;;;;;;;;;;;;18.07;45.54;100703.03;5077628;28;936;-66
2022/05/03 12:50:53;;;;;;;;;;;;;;;18.02;45.78;100695.66;5077860;28;951;-66
2022/05/03 12:53:22;;;;;;;;;;;;;;;18.06;45.38;100693.97;5078050;28;1384;-64
2022/05/03 12:55:47;;;;;;;;;;;;;;;18.09;45.71;100696.13;5093212;28;1182;-64
2022/05/03 12:58:21;;;;;;;;;;;;;;;18.08;45.44;100697.25;5089227;28;834;-65
2022/05/03 13:00:48;;;;;;;;;;;;;;;18.12;45.61;100694.75;5089647;28;785;-65
2022/05/03 13:03:13;;;;;;;;;;;;;;;18.10;45.54;100696.94;5077917;28;889;-64
2022/05/03 13:05:39;;;;;;;;;;;;;;;18.12;45.26;100689.25;5076611;28;1905;-64
2022/05/03 13:08:04;;;;;;;;;;;;;;;18.16;45.25;100695.81;5080740;28;1418;-66
2022/05/03 13:10:30;;;;;;;;;;;;;;;18.24;45.16;100697.13;5085585;28;1392;-64
2022/05/03 13:12:55;;;;;;;;;;;;;;;18.25;45.34;100705.09;5079616;28;1523;-62
2022/05/03 13:15:21;;;;;;;;;;;;;;;18.12;45.11;100701.06;5078389;28;1321;-63
2022/05/03 13:17:46;;;;;;;;;;;;;;;18.02;44.41;100709.41;5077393;28;1365;-62
2022/05/03 13:20:12;;;;;;;;;;;;;;;17.84;43.11;100699.84;5082922;28;1329;-63
2022/05/03 13:22:37;;;;;;;;;;;;;;;17.64;42.16;100700.75;5080549;28;1252;-63
2022/05/03 13:25:03;;;;;;;;;;;;;;;17.53;41.19;100704.66;5096377;28;2396;-64